createdAt,value
2018-03-30T00:00:41.155Z,999.76
2018-03-30T00:01:41.179Z,999.78
2018-03-30T00:02:41.192Z,999.74
2018-03-30T00:03:41.211Z,999.77
2018-03-30T00:04:41.222Z,999.75
2018-03-30T00:05:41.235Z,999.74
2018-03-30T00:06:41.263Z,999.70
2018-03-30T00:07:41.276Z,999.75
2018-03-30T00:08:41.285Z,999.73
2018-03-30T00:09:41.304Z,999.70
2018-03-30T00:10:41.322Z,999.78
2018-03-30T00:11:41.341Z,999.79
2018-03-30T00:12:41.349Z,999.71
2018-03-30T00:13:41.369Z,999.71
2018-03-30T00:14:41.386Z,999.71
2018-03-30T00:15:41.404Z,999.70
2018-03-30T00:16:41.417Z,999.66
2018-03-30T00:17:41.431Z,999.65
2018-03-30T00:18:41.448Z,999.61
2018-03-30T00:19:41.470Z,999.57
2018-03-30T00:20:41.481Z,999.56
2018-03-30T00:21:41.498Z,999.59
2018-03-30T00:22:41.516Z,999.55
2018-03-30T00:23:41.535Z,999.50
2018-03-30T00:24:41.547Z,999.51
2018-03-30T00:25:41.567Z,999.51
2018-03-30T00:26:41.585Z,999.48
2018-03-30T00:27:41.598Z,999.51
2018-03-30T00:28:41.612Z,999.46
2018-03-30T00:29:41.625Z,999.50
2018-03-30T00:30:41.650Z,999.50
2018-03-30T00:31:41.665Z,999.51
2018-03-30T00:32:41.674Z,999.50
2018-03-30T00:33:41.721Z,999.49
2018-03-30T00:34:41.711Z,999.39
2018-03-30T00:35:41.728Z,999.42
2018-03-30T00:36:41.741Z,999.40
2018-03-30T00:37:41.760Z,999.42
2018-03-30T00:38:41.773Z,999.48
2018-03-30T00:39:41.795Z,999.42
2018-03-30T00:40:41.803Z,999.44
2018-03-30T00:41:41.827Z,999.46
2018-03-30T00:42:41.836Z,999.47
2018-03-30T00:43:41.851Z,999.43
2018-03-30T00:44:41.875Z,999.44
2018-03-30T00:45:41.883Z,999.44
2018-03-30T00:46:41.906Z,999.40
2018-03-30T00:47:41.918Z,999.42
2018-03-30T00:48:41.937Z,999.40
2018-03-30T00:49:41.951Z,999.36
2018-03-30T00:50:41.967Z,999.29
2018-03-30T00:51:41.983Z,999.32
2018-03-30T00:52:41.995Z,999.31
2018-03-30T00:53:42.020Z,999.25
2018-03-30T00:54:42.058Z,999.27
2018-03-30T00:55:42.044Z,999.25
2018-03-30T00:56:42.067Z,999.19
2018-03-30T00:57:42.075Z,999.18
2018-03-30T00:58:42.098Z,999.19
2018-03-30T00:59:42.113Z,999.13
2018-03-30T01:00:42.127Z,999.21
2018-03-30T01:01:42.147Z,999.21
2018-03-30T01:02:42.169Z,999.13
2018-03-30T01:03:42.179Z,999.14
2018-03-30T01:04:42.188Z,999.12
2018-03-30T01:05:42.207Z,999.17
2018-03-30T01:06:42.223Z,999.20
2018-03-30T01:07:42.241Z,999.18
2018-03-30T01:08:42.259Z,999.24
2018-03-30T01:09:42.273Z,999.17
2018-03-30T01:10:42.293Z,999.14
2018-03-30T01:11:42.308Z,999.17
2018-03-30T01:12:42.316Z,999.17
2018-03-30T01:13:42.333Z,999.14
2018-03-30T01:14:42.353Z,999.14
2018-03-30T01:15:42.366Z,999.20
2018-03-30T01:16:42.386Z,999.16
2018-03-30T01:17:42.398Z,999.19
2018-03-30T01:18:42.416Z,999.14
2018-03-30T01:19:42.427Z,999.17
2018-03-30T01:20:42.453Z,999.18
2018-03-30T01:21:42.459Z,999.16
2018-03-30T01:22:42.483Z,999.17
2018-03-30T01:23:42.503Z,999.17
2018-03-30T01:24:42.509Z,999.19
2018-03-30T01:25:42.532Z,999.13
2018-03-30T01:26:42.542Z,999.14
2018-03-30T01:27:42.561Z,999.17
2018-03-30T01:28:42.583Z,999.10
2018-03-30T01:29:42.592Z,999.13
2018-03-30T01:30:42.604Z,999.13
2018-03-30T01:31:42.625Z,999.07
2018-03-30T01:32:42.637Z,999.06
2018-03-30T01:33:42.653Z,999.05
2018-03-30T01:34:42.674Z,999.04
2018-03-30T01:35:42.684Z,999.04
2018-03-30T01:36:42.703Z,999.02
2018-03-30T01:37:42.722Z,999.00
2018-03-30T01:38:42.729Z,999.01
2018-03-30T01:39:42.752Z,998.98
2018-03-30T01:40:42.763Z,999.01
2018-03-30T01:41:42.782Z,998.99
2018-03-30T01:42:42.800Z,998.96
2018-03-30T01:43:42.818Z,998.95
2018-03-30T01:44:42.833Z,999.02
2018-03-30T01:45:42.850Z,998.98
2018-03-30T01:46:42.858Z,998.95
2018-03-30T01:47:42.882Z,998.98
2018-03-30T01:48:42.889Z,999.02
2018-03-30T01:49:42.914Z,998.98
2018-03-30T01:50:42.927Z,999.00
2018-03-30T01:51:42.937Z,998.97
2018-03-30T01:52:42.961Z,999.00
2018-03-30T01:53:42.975Z,998.92
2018-03-30T01:54:42.987Z,998.95
2018-03-30T01:55:43.004Z,998.96
2018-03-30T01:56:43.017Z,998.89
2018-03-30T01:57:43.036Z,998.94
2018-03-30T01:58:43.052Z,998.93
2018-03-30T01:59:43.075Z,998.92
2018-03-30T02:00:43.090Z,998.91
2018-03-30T02:01:43.103Z,998.92
2018-03-30T02:02:43.114Z,998.95
2018-03-30T02:03:43.133Z,998.87
2018-03-30T02:04:43.148Z,998.90
2018-03-30T02:05:43.165Z,998.93
2018-03-30T02:06:43.184Z,998.85
2018-03-30T02:07:43.200Z,998.86
2018-03-30T02:08:43.208Z,998.88
2018-03-30T02:09:43.229Z,998.90
2018-03-30T02:10:43.244Z,998.89
2018-03-30T02:11:43.262Z,998.89
2018-03-30T02:12:43.279Z,998.90
2018-03-30T02:13:43.288Z,998.92
2018-03-30T02:14:43.307Z,998.93
2018-03-30T02:15:43.323Z,998.86
2018-03-30T02:16:43.336Z,998.84
2018-03-30T02:17:43.361Z,998.90
2018-03-30T02:18:43.368Z,998.84
2018-03-30T02:19:43.386Z,998.87
2018-03-30T02:20:43.408Z,998.80
2018-03-30T02:21:43.418Z,998.84
2018-03-30T02:22:43.436Z,998.77
2018-03-30T02:23:43.447Z,998.76
2018-03-30T02:24:43.471Z,998.73
2018-03-30T02:25:43.479Z,998.76
2018-03-30T02:26:43.502Z,998.78
2018-03-30T02:27:43.518Z,998.74
2018-03-30T02:28:43.527Z,998.67
2018-03-30T02:29:43.551Z,998.67
2018-03-30T02:30:43.563Z,998.71
2018-03-30T02:31:43.580Z,998.64
2018-03-30T02:32:43.599Z,998.63
2018-03-30T02:33:43.613Z,998.62
2018-03-30T02:34:43.626Z,998.64
2018-03-30T02:35:43.644Z,998.62
2018-03-30T02:36:43.657Z,998.64
2018-03-30T02:37:43.671Z,998.62
2018-03-30T02:38:43.694Z,998.63
2018-03-30T02:39:43.704Z,998.63
2018-03-30T02:40:43.725Z,998.57
2018-03-30T02:41:43.745Z,998.59
2018-03-30T02:42:43.750Z,998.60
2018-03-30T02:43:43.768Z,998.59
2018-03-30T02:44:43.792Z,998.62
2018-03-30T02:45:43.800Z,998.61
2018-03-30T02:46:43.825Z,998.55
2018-03-30T02:47:43.835Z,998.57
2018-03-30T02:48:43.847Z,998.57
2018-03-30T02:49:43.866Z,998.64
2018-03-30T02:50:43.883Z,998.59
2018-03-30T02:51:43.906Z,998.58
2018-03-30T02:52:43.918Z,998.58
2018-03-30T02:53:43.936Z,998.60
2018-03-30T02:54:43.949Z,998.58
2018-03-30T02:55:43.960Z,998.58
2018-03-30T02:56:43.986Z,998.59
2018-03-30T02:57:43.998Z,998.55
2018-03-30T02:58:44.008Z,998.57
2018-03-30T02:59:44.033Z,998.60
2018-03-30T03:00:44.045Z,998.52
2018-03-30T03:01:44.064Z,998.54
2018-03-30T03:02:44.078Z,998.54
2018-03-30T03:03:44.095Z,998.60
2018-03-30T03:04:44.112Z,998.55
2018-03-30T03:05:44.124Z,998.53
2018-03-30T03:06:44.157Z,998.54
2018-03-30T03:07:44.153Z,998.57
2018-03-30T03:08:44.176Z,998.53
2018-03-30T03:09:44.189Z,998.51
2018-03-30T03:10:44.207Z,998.50
2018-03-30T03:11:44.218Z,998.50
2018-03-30T03:12:44.242Z,998.45
2018-03-30T03:13:44.252Z,998.46
2018-03-30T03:14:44.269Z,998.45
2018-03-30T03:15:44.280Z,998.40
2018-03-30T03:16:44.304Z,998.43
2018-03-30T03:17:44.313Z,998.40
2018-03-30T03:18:44.337Z,998.44
2018-03-30T03:19:44.346Z,998.44
2018-03-30T03:20:44.367Z,998.42
2018-03-30T03:21:44.381Z,998.37
2018-03-30T03:22:44.398Z,998.35
2018-03-30T03:23:44.413Z,998.40
2018-03-30T03:24:44.430Z,998.39
2018-03-30T03:25:44.443Z,998.38
2018-03-30T03:26:44.463Z,998.37
2018-03-30T03:27:44.472Z,998.37
2018-03-30T03:28:44.498Z,998.38
2018-03-30T03:29:44.505Z,998.35
2018-03-30T03:30:44.530Z,998.33
2018-03-30T03:31:44.541Z,998.30
2018-03-30T03:32:44.563Z,998.27
2018-03-30T03:33:44.578Z,998.28
2018-03-30T03:34:44.585Z,998.29
2018-03-30T03:35:44.601Z,998.30
2018-03-30T03:36:44.620Z,998.27
2018-03-30T03:37:44.634Z,998.26
2018-03-30T03:38:44.658Z,998.29
2018-03-30T03:39:44.667Z,998.25
2018-03-30T03:40:44.690Z,998.31
2018-03-30T03:41:44.705Z,998.21
2018-03-30T03:42:44.720Z,998.19
2018-03-30T03:43:44.738Z,998.16
2018-03-30T03:44:44.747Z,998.12
2018-03-30T03:45:44.767Z,998.16
2018-03-30T03:46:44.785Z,998.19
2018-03-30T03:47:44.798Z,998.19
2018-03-30T03:48:44.825Z,998.19
2018-03-30T03:49:44.836Z,998.17
2018-03-30T03:50:44.856Z,998.12
2018-03-30T03:51:44.872Z,998.12
2018-03-30T03:52:44.910Z,998.12
2018-03-30T03:53:44.897Z,998.11
2018-03-30T03:54:44.913Z,998.03
2018-03-30T03:55:44.931Z,998.09
2018-03-30T03:56:44.950Z,998.08
2018-03-30T03:57:44.969Z,998.05
2018-03-30T03:58:44.974Z,998.06
2018-03-30T03:59:44.995Z,998.10
2018-03-30T04:00:45.010Z,998.08
2018-03-30T04:01:45.024Z,998.07
2018-03-30T04:02:45.047Z,998.06
2018-03-30T04:03:45.062Z,998.07
2018-03-30T04:04:45.076Z,998.08
2018-03-30T04:05:45.091Z,998.08
2018-03-30T04:06:45.109Z,998.03
2018-03-30T04:07:45.120Z,998.04
2018-03-30T04:08:45.147Z,998.06
2018-03-30T04:09:45.153Z,997.99
2018-03-30T04:10:45.177Z,998.01
2018-03-30T04:11:45.184Z,998.03
2018-03-30T04:12:45.210Z,997.97
2018-03-30T04:13:45.218Z,998.04
2018-03-30T04:14:45.242Z,997.98
2018-03-30T04:15:45.253Z,997.99
2018-03-30T04:16:45.271Z,997.95
2018-03-30T04:17:45.286Z,997.95
2018-03-30T04:18:45.304Z,997.93
2018-03-30T04:19:45.320Z,997.93
2018-03-30T04:20:45.334Z,997.93
2018-03-30T04:21:45.354Z,997.91
2018-03-30T04:22:45.366Z,997.93
2018-03-30T04:23:45.388Z,997.95
2018-03-30T04:24:45.404Z,997.90
2018-03-30T04:25:45.421Z,997.91
2018-03-30T04:26:45.431Z,997.90
2018-03-30T04:27:45.451Z,997.87
2018-03-30T04:28:45.467Z,997.90
2018-03-30T04:29:45.481Z,997.83
2018-03-30T04:30:45.498Z,997.88
2018-03-30T04:31:45.510Z,997.84
2018-03-30T04:32:45.534Z,997.84
2018-03-30T04:33:45.542Z,997.80
2018-03-30T04:34:45.566Z,997.83
2018-03-30T04:35:45.582Z,997.82
2018-03-30T04:36:45.597Z,997.80
2018-03-30T04:37:45.612Z,997.82
2018-03-30T04:38:45.630Z,997.81
2018-03-30T04:39:45.642Z,997.80
2018-03-30T04:40:45.663Z,997.80
2018-03-30T04:41:45.679Z,997.77
2018-03-30T04:42:45.693Z,997.78
2018-03-30T04:43:45.707Z,997.79
2018-03-30T04:44:45.731Z,997.77
2018-03-30T04:45:45.744Z,997.76
2018-03-30T04:46:45.757Z,997.74
2018-03-30T04:47:45.777Z,997.79
2018-03-30T04:48:45.787Z,997.75
2018-03-30T04:49:45.806Z,997.80
2018-03-30T04:50:45.823Z,997.80
2018-03-30T04:51:45.849Z,997.75
2018-03-30T04:52:45.859Z,997.71
2018-03-30T04:53:45.870Z,997.71
2018-03-30T04:54:45.892Z,997.75
2018-03-30T04:55:45.910Z,997.75
2018-03-30T04:56:45.923Z,997.68
2018-03-30T04:57:45.941Z,997.70
2018-03-30T04:58:45.950Z,997.70
2018-03-30T04:59:45.969Z,997.67
2018-03-30T05:00:45.987Z,997.66
2018-03-30T05:01:46.006Z,997.67
2018-03-30T05:02:46.014Z,997.65
2018-03-30T05:03:46.035Z,997.64
2018-03-30T05:04:46.049Z,997.65
2018-03-30T05:05:46.064Z,997.63
2018-03-30T05:06:46.088Z,997.71
2018-03-30T05:07:46.107Z,997.65
2018-03-30T05:08:46.114Z,997.64
2018-03-30T05:09:46.138Z,997.61
2018-03-30T05:10:46.152Z,997.67
2018-03-30T05:11:46.169Z,997.62
2018-03-30T05:12:46.182Z,997.67
2018-03-30T05:13:46.201Z,997.69
2018-03-30T05:14:46.209Z,997.68
2018-03-30T05:15:46.281Z,997.66
2018-03-30T05:16:46.244Z,997.66
2018-03-30T05:17:46.261Z,997.68
2018-03-30T05:18:46.280Z,997.66
2018-03-30T05:19:46.290Z,997.68
2018-03-30T05:20:46.315Z,997.63
2018-03-30T05:21:46.328Z,997.65
2018-03-30T05:22:46.342Z,997.68
2018-03-30T05:23:46.364Z,997.71
2018-03-30T05:24:46.372Z,997.73
2018-03-30T05:25:46.396Z,997.70
2018-03-30T05:26:46.408Z,997.75
2018-03-30T05:27:46.426Z,997.72
2018-03-30T05:28:46.444Z,997.75
2018-03-30T05:29:46.459Z,997.77
2018-03-30T05:30:46.470Z,997.81
2018-03-30T05:31:46.490Z,997.85
2018-03-30T05:32:46.504Z,997.94
2018-03-30T05:33:46.523Z,998.00
2018-03-30T05:34:46.536Z,998.03
2018-03-30T05:35:46.552Z,998.08
2018-03-30T05:36:46.572Z,998.09
2018-03-30T05:37:46.585Z,998.14
2018-03-30T05:38:46.604Z,998.10
2018-03-30T05:39:46.623Z,997.97
2018-03-30T05:40:46.639Z,997.95
2018-03-30T05:41:46.653Z,997.90
2018-03-30T05:42:46.672Z,997.87
2018-03-30T05:43:46.688Z,997.88
2018-03-30T05:44:46.702Z,997.93
2018-03-30T05:45:46.717Z,998.02
2018-03-30T05:46:46.735Z,998.02
2018-03-30T05:47:46.747Z,998.05
2018-03-30T05:48:46.767Z,998.09
2018-03-30T05:49:46.783Z,998.03
2018-03-30T05:50:46.800Z,998.07
2018-03-30T05:51:46.814Z,997.99
2018-03-30T05:52:46.835Z,997.97
2018-03-30T05:53:46.843Z,997.98
2018-03-30T05:54:46.868Z,997.92
2018-03-30T05:55:46.879Z,997.96
2018-03-30T05:56:46.899Z,997.97
2018-03-30T05:57:46.918Z,997.99
2018-03-30T05:58:46.932Z,997.99
2018-03-30T05:59:46.948Z,997.94
2018-03-30T06:00:46.968Z,997.99
2018-03-30T06:01:46.978Z,997.95
2018-03-30T06:02:47.001Z,997.98
2018-03-30T06:03:47.013Z,997.96
2018-03-30T06:04:47.029Z,997.98
2018-03-30T06:05:47.043Z,997.99
2018-03-30T06:06:47.067Z,997.91
2018-03-30T06:07:47.084Z,997.95
2018-03-30T06:08:47.094Z,997.94
2018-03-30T06:09:47.113Z,997.94
2018-03-30T06:10:47.132Z,998.01
2018-03-30T06:11:47.145Z,997.99
2018-03-30T06:12:47.164Z,997.98
2018-03-30T06:13:47.181Z,997.96
2018-03-30T06:14:47.201Z,997.94
2018-03-30T06:15:47.218Z,997.93
2018-03-30T06:16:47.227Z,997.95
2018-03-30T06:17:47.252Z,997.95
2018-03-30T06:18:47.261Z,997.97
2018-03-30T06:19:47.280Z,997.92
2018-03-30T06:20:47.300Z,997.96
2018-03-30T06:21:47.320Z,997.90
2018-03-30T06:22:47.328Z,997.93
2018-03-30T06:23:47.352Z,997.92
2018-03-30T06:24:47.366Z,997.89
2018-03-30T06:25:47.380Z,997.89
2018-03-30T06:26:47.409Z,997.87
2018-03-30T06:27:47.416Z,997.89
2018-03-30T06:28:47.431Z,997.87
2018-03-30T06:29:47.456Z,997.87
2018-03-30T06:30:47.470Z,997.88
2018-03-30T06:31:47.486Z,997.94
2018-03-30T06:32:47.502Z,997.89
2018-03-30T06:33:47.522Z,997.93
2018-03-30T06:34:47.535Z,997.96
2018-03-30T06:35:47.549Z,997.98
2018-03-30T06:36:47.577Z,997.95
2018-03-30T06:37:47.591Z,997.99
2018-03-30T06:38:47.604Z,997.98
2018-03-30T06:39:47.630Z,997.96
2018-03-30T06:40:47.642Z,997.94
2018-03-30T06:41:47.658Z,997.97
2018-03-30T06:42:47.676Z,998.00
2018-03-30T06:43:47.687Z,998.00
2018-03-30T06:44:47.713Z,998.01
2018-03-30T06:45:47.728Z,997.95
2018-03-30T06:46:47.748Z,997.95
2018-03-30T06:47:47.767Z,997.94
2018-03-30T06:48:47.781Z,997.94
2018-03-30T06:49:47.795Z,997.94
2018-03-30T06:50:47.814Z,997.93
2018-03-30T06:51:47.835Z,997.97
2018-03-30T06:52:47.845Z,997.95
2018-03-30T06:53:47.870Z,998.02
2018-03-30T06:54:47.879Z,998.11
2018-03-30T06:55:47.902Z,998.00
2018-03-30T06:56:47.917Z,998.06
2018-03-30T06:57:47.980Z,998.02
2018-03-30T06:58:47.952Z,998.00
2018-03-30T06:59:47.969Z,997.91
2018-03-30T07:00:47.990Z,997.91
2018-03-30T07:01:48.010Z,997.92
2018-03-30T07:02:48.024Z,997.90
2018-03-30T07:03:48.043Z,997.86
2018-03-30T07:04:48.062Z,997.87
2018-03-30T07:05:48.071Z,997.86
2018-03-30T07:06:48.098Z,997.88
2018-03-30T07:07:48.112Z,997.89
2018-03-30T07:08:48.128Z,997.92
2018-03-30T07:09:48.149Z,997.91
2018-03-30T07:10:48.166Z,997.91
2018-03-30T07:11:48.186Z,997.90
2018-03-30T07:12:48.195Z,997.91
2018-03-30T07:13:48.222Z,997.95
2018-03-30T07:14:48.229Z,997.97
2018-03-30T07:15:48.248Z,997.95
2018-03-30T07:16:48.274Z,998.01
2018-03-30T07:17:48.289Z,997.97
2018-03-30T07:18:48.304Z,998.03
2018-03-30T07:19:48.324Z,997.94
2018-03-30T07:20:48.336Z,997.95
2018-03-30T07:21:48.357Z,997.94
2018-03-30T07:22:48.376Z,997.94
2018-03-30T07:23:48.476Z,997.98
2018-03-30T07:24:48.406Z,998.03
2018-03-30T07:25:48.428Z,997.99
2018-03-30T07:26:48.447Z,998.01
2018-03-30T07:27:48.465Z,998.00
2018-03-30T07:28:48.480Z,998.02
2018-03-30T07:29:48.496Z,998.01
2018-03-30T07:30:48.521Z,998.03
2018-03-30T07:31:48.534Z,998.06
2018-03-30T07:32:48.555Z,998.10
2018-03-30T07:33:48.575Z,998.10
2018-03-30T07:34:48.586Z,998.07
2018-03-30T07:35:48.603Z,998.09
2018-03-30T07:36:48.624Z,998.16
2018-03-30T07:37:48.695Z,998.10
2018-03-30T07:38:48.714Z,998.45
2018-03-30T07:39:48.675Z,998.34
2018-03-30T07:40:48.701Z,998.57
2018-03-30T07:41:48.727Z,998.81
2018-03-30T07:42:48.740Z,998.85
2018-03-30T07:43:48.751Z,998.80
2018-03-30T07:44:48.774Z,998.52
2018-03-30T07:45:48.790Z,998.38
2018-03-30T07:46:48.816Z,998.72
2018-03-30T07:47:48.826Z,998.65
2018-03-30T07:48:48.856Z,998.49
2018-03-30T07:49:48.877Z,998.21
2018-03-30T07:50:48.890Z,998.10
2018-03-30T07:51:48.912Z,998.12
2018-03-30T07:52:48.934Z,998.22
2018-03-30T07:53:48.958Z,998.24
2018-03-30T07:54:48.970Z,998.24
2018-03-30T07:55:48.999Z,998.21
2018-03-30T07:56:49.015Z,998.17
2018-03-30T07:57:49.038Z,998.10
2018-03-30T07:58:49.069Z,998.12
2018-03-30T07:59:49.085Z,998.20
2018-03-30T08:00:49.107Z,998.30
2018-03-30T08:01:49.124Z,997.84
2018-03-30T08:02:49.154Z,998.59
2018-03-30T08:03:49.172Z,998.88
2018-03-30T08:04:49.204Z,999.07
2018-03-30T08:05:49.217Z,999.04
2018-03-30T08:06:49.243Z,998.98
2018-03-30T08:07:49.260Z,998.98
2018-03-30T08:08:49.292Z,997.96
2018-03-30T08:09:49.308Z,998.01
2018-03-30T08:10:49.340Z,997.66
2018-03-30T08:11:49.362Z,997.51
2018-03-30T08:12:49.383Z,997.58
2018-03-30T08:13:49.410Z,997.53
2018-03-30T08:14:49.437Z,997.54
2018-03-30T08:15:49.459Z,997.55
2018-03-30T08:16:49.475Z,997.55
2018-03-30T08:17:49.503Z,997.49
2018-03-30T08:18:49.545Z,997.54
2018-03-30T08:19:49.581Z,997.51
2018-03-30T08:20:49.578Z,997.50
2018-03-30T08:21:49.601Z,997.50
2018-03-30T08:22:49.618Z,997.71
2018-03-30T08:23:49.643Z,997.50
2018-03-30T08:24:49.667Z,997.58
2018-03-30T08:25:49.687Z,997.47
2018-03-30T08:26:49.713Z,997.51
2018-03-30T08:27:49.732Z,997.50
2018-03-30T08:28:49.757Z,997.42
2018-03-30T08:29:49.781Z,997.41
2018-03-30T08:30:49.796Z,997.39
2018-03-30T08:31:49.817Z,997.33
2018-03-30T08:32:49.848Z,997.35
2018-03-30T08:33:49.867Z,997.34
2018-03-30T08:34:49.885Z,997.40
2018-03-30T08:35:49.908Z,997.32
2018-03-30T08:36:49.933Z,997.32
2018-03-30T08:37:49.956Z,997.32
2018-03-30T08:38:49.968Z,997.33
2018-03-30T08:39:49.990Z,997.30
2018-03-30T08:40:50.019Z,997.24
2018-03-30T08:41:50.063Z,997.25
2018-03-30T08:42:50.057Z,997.24
2018-03-30T08:43:50.074Z,997.22
2018-03-30T08:44:50.102Z,997.29
2018-03-30T08:45:50.121Z,997.25
2018-03-30T08:46:50.138Z,997.24
2018-03-30T08:47:50.158Z,997.23
2018-03-30T08:48:50.182Z,997.27
2018-03-30T08:49:50.208Z,997.28
2018-03-30T08:50:50.218Z,997.26
2018-03-30T08:51:50.238Z,997.30
2018-03-30T08:52:50.268Z,997.30
2018-03-30T08:53:50.285Z,997.27
2018-03-30T08:54:50.303Z,997.26
2018-03-30T08:55:50.326Z,997.36
2018-03-30T08:56:50.348Z,997.27
2018-03-30T08:57:50.371Z,997.26
2018-03-30T08:58:50.381Z,997.25
2018-03-30T08:59:50.405Z,997.21
2018-03-30T09:00:50.429Z,997.22
2018-03-30T09:01:50.452Z,997.23
2018-03-30T09:02:50.464Z,997.21
2018-03-30T09:03:50.486Z,997.18
2018-03-30T09:04:50.516Z,997.21
2018-03-30T09:05:50.534Z,997.17
2018-03-30T09:06:50.550Z,997.12
2018-03-30T09:07:50.624Z,997.03
2018-03-30T09:08:50.595Z,996.98
2018-03-30T09:09:50.614Z,997.02
2018-03-30T09:10:50.635Z,997.00
2018-03-30T09:11:50.650Z,996.98
2018-03-30T09:12:50.680Z,997.08
2018-03-30T09:13:50.691Z,997.07
2018-03-30T09:14:50.721Z,996.97
2018-03-30T09:15:50.734Z,997.03
2018-03-30T09:16:50.763Z,996.99
2018-03-30T09:17:50.778Z,997.00
2018-03-30T09:18:50.804Z,997.26
2018-03-30T09:19:50.819Z,997.25
2018-03-30T09:20:50.844Z,997.14
2018-03-30T09:21:50.918Z,997.29
2018-03-30T09:22:50.885Z,997.52
2018-03-30T09:23:50.905Z,997.86
2018-03-30T09:24:50.927Z,997.77
2018-03-30T09:25:50.955Z,997.69
2018-03-30T09:26:50.975Z,997.19
2018-03-30T09:27:50.991Z,997.80
2018-03-30T09:28:51.011Z,997.75
2018-03-30T09:29:51.030Z,996.96
2018-03-30T09:30:51.062Z,996.80
2018-03-30T09:31:51.082Z,996.77
2018-03-30T09:32:51.107Z,996.82
2018-03-30T09:33:51.128Z,996.74
2018-03-30T09:34:51.219Z,996.72
2018-03-30T09:35:51.176Z,996.71
2018-03-30T09:36:51.194Z,996.76
2018-03-30T09:37:51.232Z,996.77
2018-03-30T09:38:51.259Z,996.69
2018-03-30T09:39:51.268Z,996.66
2018-03-30T09:40:51.294Z,996.67
2018-03-30T09:41:51.315Z,996.66
2018-03-30T09:42:51.341Z,996.65
2018-03-30T09:43:51.364Z,996.64
2018-03-30T09:44:51.385Z,996.62
2018-03-30T09:45:51.407Z,996.62
2018-03-30T09:46:51.434Z,996.63
2018-03-30T09:47:51.458Z,996.66
2018-03-30T09:48:51.484Z,996.95
2018-03-30T09:49:51.506Z,996.81
2018-03-30T09:50:51.520Z,996.83
2018-03-30T09:51:51.549Z,996.74
2018-03-30T09:52:51.606Z,997.24
2018-03-30T09:53:51.596Z,996.99
2018-03-30T09:54:51.615Z,997.05
2018-03-30T09:55:51.646Z,997.46
2018-03-30T09:56:51.662Z,996.91
2018-03-30T09:57:51.694Z,997.39
2018-03-30T09:58:51.715Z,997.32
2018-03-30T09:59:51.740Z,996.47
2018-03-30T10:00:51.768Z,997.00
2018-03-30T10:01:51.791Z,997.08
2018-03-30T10:02:51.811Z,997.24
2018-03-30T10:03:51.834Z,997.17
2018-03-30T10:04:51.868Z,997.13
2018-03-30T10:05:51.891Z,997.04
2018-03-30T10:06:51.913Z,997.03
2018-03-30T10:07:51.944Z,996.95
2018-03-30T10:08:51.964Z,996.98
2018-03-30T10:09:51.992Z,996.93
2018-03-30T10:10:52.022Z,997.03
2018-03-30T10:11:52.048Z,997.05
2018-03-30T10:12:52.072Z,996.98
2018-03-30T10:13:52.101Z,996.93
2018-03-30T10:14:52.154Z,996.85
2018-03-30T10:15:52.158Z,996.85
2018-03-30T10:16:52.183Z,996.78
2018-03-30T10:17:52.214Z,996.83
2018-03-30T10:18:52.232Z,996.81
2018-03-30T10:19:52.264Z,996.78
2018-03-30T10:20:52.294Z,996.74
2018-03-30T10:21:52.324Z,996.79
2018-03-30T10:22:52.347Z,996.70
2018-03-30T10:23:52.381Z,996.55
2018-03-30T10:24:52.404Z,996.72
2018-03-30T10:25:52.429Z,996.71
2018-03-30T10:26:52.465Z,996.82
2018-03-30T10:27:52.492Z,996.68
2018-03-30T10:28:52.531Z,996.45
2018-03-30T10:29:52.551Z,996.71
2018-03-30T10:30:52.577Z,996.55
2018-03-30T10:31:52.605Z,996.55
2018-03-30T10:32:52.642Z,996.61
2018-03-30T10:33:52.658Z,996.46
2018-03-30T10:34:52.694Z,996.46
2018-03-30T10:35:52.716Z,996.38
2018-03-30T10:36:52.754Z,996.18
2018-03-30T10:37:52.775Z,996.08
2018-03-30T10:38:52.812Z,996.25
2018-03-30T10:39:52.835Z,996.35
2018-03-30T10:40:52.867Z,996.33
2018-03-30T10:41:52.897Z,996.40
2018-03-30T10:42:52.924Z,996.30
2018-03-30T10:43:52.947Z,996.34
2018-03-30T10:44:52.989Z,996.33
2018-03-30T10:45:53.012Z,996.29
2018-03-30T10:46:53.043Z,996.26
2018-03-30T10:47:53.071Z,996.26
2018-03-30T10:48:53.098Z,996.24
2018-03-30T10:49:53.125Z,996.21
2018-03-30T10:50:53.156Z,996.18
2018-03-30T10:51:53.188Z,996.10
2018-03-30T10:52:53.213Z,996.02
2018-03-30T10:53:53.241Z,996.10
2018-03-30T10:54:53.272Z,996.02
2018-03-30T10:55:53.302Z,995.96
2018-03-30T10:56:53.328Z,995.88
2018-03-30T10:57:53.354Z,995.92
2018-03-30T10:58:53.394Z,995.92
2018-03-30T10:59:53.420Z,995.90
2018-03-30T11:00:53.441Z,995.76
2018-03-30T11:01:53.478Z,995.63
2018-03-30T11:02:53.505Z,995.82
2018-03-30T11:03:53.534Z,995.64
2018-03-30T11:04:53.566Z,995.58
2018-03-30T11:05:53.593Z,995.57
2018-03-30T11:06:53.616Z,995.48
2018-03-30T11:07:53.649Z,995.46
2018-03-30T11:08:53.675Z,995.35
2018-03-30T11:09:53.700Z,995.49
2018-03-30T11:10:53.737Z,995.28
2018-03-30T11:11:53.762Z,995.31
2018-03-30T11:12:53.791Z,995.39
2018-03-30T11:13:53.823Z,995.42
2018-03-30T11:14:53.843Z,995.33
2018-03-30T11:15:53.874Z,995.28
2018-03-30T11:16:53.900Z,995.28
2018-03-30T11:17:53.931Z,995.24
2018-03-30T11:18:53.960Z,995.26
2018-03-30T11:19:53.993Z,995.28
2018-03-30T11:20:54.012Z,995.38
2018-03-30T11:21:54.042Z,995.22
2018-03-30T11:22:54.061Z,995.26
2018-03-30T11:23:54.096Z,995.34
2018-03-30T11:24:54.115Z,995.33
2018-03-30T11:25:54.150Z,995.32
2018-03-30T11:26:54.167Z,995.34
2018-03-30T11:27:54.194Z,995.32
2018-03-30T11:28:54.234Z,995.23
2018-03-30T11:29:54.248Z,995.14
2018-03-30T11:30:54.284Z,995.28
2018-03-30T11:31:54.303Z,995.26
2018-03-30T11:32:54.334Z,995.25
2018-03-30T11:33:54.364Z,995.27
2018-03-30T11:34:54.380Z,995.44
2018-03-30T11:35:54.408Z,995.38
2018-03-30T11:36:54.446Z,995.30
2018-03-30T11:37:54.467Z,995.26
2018-03-30T11:38:54.490Z,995.43
2018-03-30T11:39:54.515Z,995.39
2018-03-30T11:40:54.551Z,995.39
2018-03-30T11:41:54.575Z,995.28
2018-03-30T11:42:54.598Z,995.16
2018-03-30T11:43:54.625Z,995.35
2018-03-30T11:44:54.656Z,995.44
2018-03-30T11:45:54.686Z,995.41
2018-03-30T11:46:54.704Z,995.43
2018-03-30T11:47:54.731Z,995.49
2018-03-30T11:48:54.767Z,995.43
2018-03-30T11:49:54.788Z,995.40
2018-03-30T11:50:54.822Z,994.97
2018-03-30T11:51:54.846Z,995.04
2018-03-30T11:52:54.927Z,995.21
2018-03-30T11:53:54.904Z,995.20
2018-03-30T11:54:54.932Z,995.15
2018-03-30T11:55:54.968Z,995.19
2018-03-30T11:56:54.993Z,995.14
2018-03-30T11:57:55.017Z,995.13
2018-03-30T11:58:55.049Z,995.10
2018-03-30T11:59:55.072Z,995.14
2018-03-30T12:00:55.111Z,995.10
2018-03-30T12:01:55.129Z,995.01
2018-03-30T12:02:55.168Z,995.01
2018-03-30T12:03:55.190Z,994.95
2018-03-30T12:04:55.222Z,994.90
2018-03-30T12:05:55.255Z,994.91
2018-03-30T12:06:55.273Z,994.98
2018-03-30T12:07:55.343Z,994.87
2018-03-30T12:08:55.335Z,994.92
2018-03-30T12:09:55.360Z,994.85
2018-03-30T12:10:55.398Z,994.84
2018-03-30T12:11:55.418Z,994.76
2018-03-30T12:12:55.455Z,994.81
2018-03-30T12:13:55.482Z,994.75
2018-03-30T12:14:55.508Z,994.84
2018-03-30T12:15:55.536Z,994.76
2018-03-30T12:16:55.569Z,994.72
2018-03-30T12:17:55.601Z,994.72
2018-03-30T12:18:55.641Z,994.67
2018-03-30T12:19:55.675Z,994.63
2018-03-30T12:20:55.686Z,994.52
2018-03-30T12:21:55.712Z,994.46
2018-03-30T12:22:55.762Z,994.41
2018-03-30T12:23:55.767Z,994.48
2018-03-30T12:24:55.797Z,994.41
2018-03-30T12:25:55.825Z,994.38
2018-03-30T12:26:55.935Z,994.41
2018-03-30T12:27:55.883Z,994.41
2018-03-30T12:28:55.913Z,994.41